sensor_id;sensor_type;location;lat;lon;timestamp;pressure;altitude;pressure_sealevel;temperature;humidity
26112;BME280;13829;48.990;8.346;2023-04-10T00:00:23;101060.41;;;8.93;61.63
26112;BME280;13829;48.990;8.346;2023-04-10T00:02:52;101060.69;;;8.68;62.99
26112;BME280;13829;48.990;8.346;2023-04-10T00:05:19;101060.63;;;8.64;63.96
26112;BME280;13829;48.990;8.346;2023-04-10T00:07:48;101058.72;;;8.57;65.09
26112;BME280;13829;48.990;8.346;2023-04-10T00:10:18;101067.50;;;8.59;65.21
26112;BME280;13829;48.990;8.346;2023-04-10T00:12:47;101052.25;;;8.44;66.36
26112;BME280;13829;48.990;8.346;2023-04-10T00:15:19;101061.78;;;8.41;66.91
26112;BME280;13829;48.990;8.346;2023-04-10T00:17:48;101054.47;;;8.62;65.03
26112;BME280;13829;48.990;8.346;2023-04-10T00:20:19;101056.16;;;8.59;64.43
26112;BME280;13829;48.990;8.346;2023-04-10T00:22:50;101053.25;;;8.48;65.33
26112;BME280;13829;48.990;8.346;2023-04-10T00:25:21;101064.59;;;8.47;65.13
26112;BME280;13829;48.990;8.346;2023-04-10T00:27:54;101057.38;;;8.40;65.40
26112;BME280;13829;48.990;8.346;2023-04-10T00:30:23;101053.81;;;8.36;66.02
26112;BME280;13829;48.990;8.346;2023-04-10T00:32:52;101068.63;;;8.36;66.37
26112;BME280;13829;48.990;8.346;2023-04-10T00:35:22;101066.13;;;8.39;66.30
26112;BME280;13829;48.990;8.346;2023-04-10T00:37:51;101054.22;;;8.18;66.89
26112;BME280;13829;48.990;8.346;2023-04-10T00:40:19;101056.03;;;8.21;66.63
26112;BME280;13829;48.990;8.346;2023-04-10T00:42:50;101057.09;;;8.27;66.20
26112;BME280;13829;48.990;8.346;2023-04-10T00:45:20;101053.34;;;8.18;67.29
26112;BME280;13829;48.990;8.346;2023-04-10T00:47:52;101057.63;;;8.14;67.42
26112;BME280;13829;48.990;8.346;2023-04-10T00:50:21;101061.81;;;8.06;68.81
26112;BME280;13829;48.990;8.346;2023-04-10T00:52:48;101055.78;;;8.10;68.18
26112;BME280;13829;48.990;8.346;2023-04-10T00:55:20;101050.38;;;8.04;68.73
26112;BME280;13829;48.990;8.346;2023-04-10T00:57:53;101052.53;;;8.20;67.76
26112;BME280;13829;48.990;8.346;2023-04-10T01:00:28;101052.38;;;8.14;68.38
26112;BME280;13829;48.990;8.346;2023-04-10T01:02:57;101048.69;;;8.06;69.45
26112;BME280;13829;48.990;8.346;2023-04-10T01:05:38;101050.31;;;8.00;69.83
26112;BME280;13829;48.990;8.346;2023-04-10T01:08:22;101053.34;;;7.84;70.29
26112;BME280;13829;48.990;8.346;2023-04-10T01:11:02;101056.31;;;7.64;70.95
26112;BME280;13829;48.990;8.346;2023-04-10T01:13:39;101054.09;;;7.46;71.98
26112;BME280;13829;48.990;8.346;2023-04-10T01:16:15;101050.16;;;7.30;72.80
26112;BME280;13829;48.990;8.346;2023-04-10T01:18:52;101052.28;;;7.13;75.47
26112;BME280;13829;48.990;8.346;2023-04-10T01:21:23;101050.06;;;7.27;73.78
26112;BME280;13829;48.990;8.346;2023-04-10T01:24:15;101067.19;;;7.16;73.68
26112;BME280;13829;48.990;8.346;2023-04-10T01:27:08;101070.25;;;7.02;75.15
26112;BME280;13829;48.990;8.346;2023-04-10T01:29:44;101058.50;;;7.17;74.63
26112;BME280;13829;48.990;8.346;2023-04-10T01:32:19;101069.50;;;7.07;75.39
26112;BME280;13829;48.990;8.346;2023-04-10T01:34:50;101060.81;;;7.08;75.22
26112;BME280;13829;48.990;8.346;2023-04-10T01:37:23;101072.22;;;7.10;75.97
26112;BME280;13829;48.990;8.346;2023-04-10T01:39:58;101078.22;;;7.06;75.79
26112;BME280;13829;48.990;8.346;2023-04-10T01:42:31;101061.34;;;7.25;75.18
26112;BME280;13829;48.990;8.346;2023-04-10T01:45:08;101072.22;;;7.10;75.67
26112;BME280;13829;48.990;8.346;2023-04-10T01:47:37;101069.38;;;7.02;76.00
26112;BME280;13829;48.990;8.346;2023-04-10T01:50:07;101068.59;;;7.05;75.72
26112;BME280;13829;48.990;8.346;2023-04-10T01:52:36;101064.66;;;6.90;76.77
26112;BME280;13829;48.990;8.346;2023-04-10T01:55:07;101064.75;;;6.93;75.76
26112;BME280;13829;48.990;8.346;2023-04-10T01:57:34;101073.72;;;7.01;75.89
26112;BME280;13829;48.990;8.346;2023-04-10T02:00:04;101063.63;;;7.14;75.27
26112;BME280;13829;48.990;8.346;2023-04-10T02:02:32;101058.66;;;7.23;74.75
26112;BME280;13829;48.990;8.346;2023-04-10T02:05:00;101057.59;;;7.47;73.63
26112;BME280;13829;48.990;8.346;2023-04-10T02:07:35;101043.03;;;7.57;72.44
26112;BME280;13829;48.990;8.346;2023-04-10T02:10:12;101041.84;;;7.45;72.27
26112;BME280;13829;48.990;8.346;2023-04-10T02:12:47;101040.97;;;7.45;72.97
26112;BME280;13829;48.990;8.346;2023-04-10T02:15:23;101042.78;;;7.79;71.14
26112;BME280;13829;48.990;8.346;2023-04-10T02:17:52;101034.88;;;7.46;71.97
26112;BME280;13829;48.990;8.346;2023-04-10T02:20:22;101031.34;;;7.44;72.43
26112;BME280;13829;48.990;8.346;2023-04-10T02:22:51;101031.72;;;7.58;72.16
26112;BME280;13829;48.990;8.346;2023-04-10T02:25:19;101037.00;;;7.59;71.58
26112;BME280;13829;48.990;8.346;2023-04-10T02:27:46;101038.78;;;7.60;71.41
26112;BME280;13829;48.990;8.346;2023-04-10T02:30:13;101040.41;;;7.57;71.67
26112;BME280;13829;48.990;8.346;2023-04-10T02:32:42;101042.19;;;7.58;71.00
26112;BME280;13829;48.990;8.346;2023-04-10T02:35:09;101046.28;;;7.48;71.87
26112;BME280;13829;48.990;8.346;2023-04-10T02:37:36;101044.28;;;7.39;72.03
26112;BME280;13829;48.990;8.346;2023-04-10T02:40:05;101035.97;;;7.54;71.85
26112;BME280;13829;48.990;8.346;2023-04-10T02:42:32;101033.03;;;7.42;72.29
26112;BME280;13829;48.990;8.346;2023-04-10T02:44:59;101035.25;;;7.60;71.25
26112;BME280;13829;48.990;8.346;2023-04-10T02:47:26;101038.66;;;7.57;71.15
26112;BME280;13829;48.990;8.346;2023-04-10T02:49:54;101033.03;;;7.42;71.96
26112;BME280;13829;48.990;8.346;2023-04-10T02:52:21;101029.50;;;7.73;70.79
26112;BME280;13829;48.990;8.346;2023-04-10T02:54:48;101033.28;;;7.83;71.08
26112;BME280;13829;48.990;8.346;2023-04-10T02:57:16;101029.78;;;7.84;70.28
26112;BME280;13829;48.990;8.346;2023-04-10T02:59:43;101028.06;;;7.84;68.65
26112;BME280;13829;48.990;8.346;2023-04-10T03:02:10;101027.41;;;7.93;69.33
26112;BME280;13829;48.990;8.346;2023-04-10T03:04:37;101031.75;;;7.93;69.02
26112;BME280;13829;48.990;8.346;2023-04-10T03:07:05;101019.06;;;7.75;69.07
26112;BME280;13829;48.990;8.346;2023-04-10T03:09:32;101019.69;;;7.64;69.72
26112;BME280;13829;48.990;8.346;2023-04-10T03:11:59;101014.38;;;7.61;70.32
26112;BME280;13829;48.990;8.346;2023-04-10T03:14:27;101013.66;;;7.68;69.90
26112;BME280;13829;48.990;8.346;2023-04-10T03:16:54;101006.78;;;7.72;70.04
26112;BME280;13829;48.990;8.346;2023-04-10T03:19:22;101009.69;;;7.83;69.01
26112;BME280;13829;48.990;8.346;2023-04-10T03:21:51;101001.09;;;7.89;69.00
26112;BME280;13829;48.990;8.346;2023-04-10T03:24:19;100997.50;;;7.85;68.98
26112;BME280;13829;48.990;8.346;2023-04-10T03:26:46;100994.59;;;7.73;69.48
26112;BME280;13829;48.990;8.346;2023-04-10T03:29:13;100996.09;;;7.63;68.97
26112;BME280;13829;48.990;8.346;2023-04-10T03:31:43;100986.31;;;7.57;69.78
26112;BME280;13829;48.990;8.346;2023-04-10T03:34:10;100987.81;;;7.47;70.05
26112;BME280;13829;48.990;8.346;2023-04-10T03:36:37;100977.28;;;7.46;70.36
26112;BME280;13829;48.990;8.346;2023-04-10T03:39:04;100979.72;;;7.72;69.62
26112;BME280;13829;48.990;8.346;2023-04-10T03:41:33;100971.09;;;7.76;68.79
26112;BME280;13829;48.990;8.346;2023-04-10T03:44:00;100962.16;;;7.67;68.88
26112;BME280;13829;48.990;8.346;2023-04-10T03:46:28;100970.22;;;7.75;68.67
26112;BME280;13829;48.990;8.346;2023-04-10T03:48:55;100963.75;;;7.62;69.09
26112;BME280;13829;48.990;8.346;2023-04-10T03:51:22;100972.94;;;7.80;68.51
26112;BME280;13829;48.990;8.346;2023-04-10T03:53:50;100963.72;;;7.61;67.59
26112;BME280;13829;48.990;8.346;2023-04-10T03:56:17;100959.91;;;7.48;68.72
26112;BME280;13829;48.990;8.346;2023-04-10T03:58:45;100964.97;;;7.42;69.12
26112;BME280;13829;48.990;8.346;2023-04-10T04:01:12;100964.41;;;7.54;69.17
26112;BME280;13829;48.990;8.346;2023-04-10T04:03:39;100968.28;;;7.68;68.88
26112;BME280;13829;48.990;8.346;2023-04-10T04:06:06;100972.84;;;7.75;68.55
26112;BME280;13829;48.990;8.346;2023-04-10T04:08:33;100972.59;;;7.66;68.34
26112;BME280;13829;48.990;8.346;2023-04-10T04:11:03;100973.94;;;7.50;68.73
26112;BME280;13829;48.990;8.346;2023-04-10T04:13:30;100968.53;;;7.44;69.91
26112;BME280;13829;48.990;8.346;2023-04-10T04:15:59;100971.72;;;7.65;69.02
26112;BME280;13829;48.990;8.346;2023-04-10T04:18:26;100965.94;;;7.45;69.62
26112;BME280;13829;48.990;8.346;2023-04-10T04:20:53;100968.75;;;7.53;69.48
26112;BME280;13829;48.990;8.346;2023-04-10T04:23:20;100971.88;;;7.72;68.60
26112;BME280;13829;48.990;8.346;2023-04-10T04:25:46;100962.97;;;7.65;68.59
26112;BME280;13829;48.990;8.346;2023-04-10T04:28:17;100953.38;;;7.65;68.40
26112;BME280;13829;48.990;8.346;2023-04-10T04:30:44;100954.09;;;7.60;68.16
26112;BME280;13829;48.990;8.346;2023-04-10T04:33:12;100958.47;;;7.59;68.28
26112;BME280;13829;48.990;8.346;2023-04-10T04:35:39;100951.78;;;7.71;67.51
26112;BME280;13829;48.990;8.346;2023-04-10T04:38:09;100957.03;;;7.72;66.99
26112;BME280;13829;48.990;8.346;2023-04-10T04:40:36;100959.94;;;7.83;65.50
26112;BME280;13829;48.990;8.346;2023-04-10T04:43:03;100961.56;;;7.78;65.31
26112;BME280;13829;48.990;8.346;2023-04-10T04:45:29;100966.09;;;7.85;64.96
26112;BME280;13829;48.990;8.346;2023-04-10T04:47:56;100967.59;;;7.75;64.88
26112;BME280;13829;48.990;8.346;2023-04-10T04:50:25;100968.81;;;7.88;63.94
26112;BME280;13829;48.990;8.346;2023-04-10T04:52:52;100979.00;;;7.77;64.23
26112;BME280;13829;48.990;8.346;2023-04-10T04:55:19;100972.16;;;7.84;64.70
26112;BME280;13829;48.990;8.346;2023-04-10T04:57:46;100971.41;;;7.88;64.66
26112;BME280;13829;48.990;8.346;2023-04-10T05:00:13;100979.66;;;8.04;63.65
26112;BME280;13829;48.990;8.346;2023-04-10T05:02:40;100971.19;;;8.15;62.56
26112;BME280;13829;48.990;8.346;2023-04-10T05:05:08;100979.19;;;8.22;62.26
26112;BME280;13829;48.990;8.346;2023-04-10T05:07:36;100977.50;;;8.22;62.19
26112;BME280;13829;48.990;8.346;2023-04-10T05:10:05;100985.44;;;8.27;62.28
26112;BME280;13829;48.990;8.346;2023-04-10T05:12:32;100986.97;;;8.17;62.29
26112;BME280;13829;48.990;8.346;2023-04-10T05:15:00;100987.09;;;8.23;61.86
26112;BME280;13829;48.990;8.346;2023-04-10T05:17:27;100987.72;;;8.13;63.83
26112;BME280;13829;48.990;8.346;2023-04-10T05:19:54;100989.44;;;8.11;64.59
26112;BME280;13829;48.990;8.346;2023-04-10T05:22:21;100984.19;;;8.11;65.09
26112;BME280;13829;48.990;8.346;2023-04-10T05:24:49;100986.75;;;8.09;66.24
26112;BME280;13829;48.990;8.346;2023-04-10T05:27:16;100984.19;;;8.11;66.86
26112;BME280;13829;48.990;8.346;2023-04-10T05:29:46;100982.22;;;8.00;68.65
26112;BME280;13829;48.990;8.346;2023-04-10T05:32:13;100976.28;;;8.09;67.25
26112;BME280;13829;48.990;8.346;2023-04-10T05:34:40;100979.59;;;8.00;68.74
26112;BME280;13829;48.990;8.346;2023-04-10T05:37:07;100969.97;;;7.99;70.00
26112;BME280;13829;48.990;8.346;2023-04-10T05:39:37;100972.00;;;8.13;70.49
26112;BME280;13829;48.990;8.346;2023-04-10T05:42:05;100971.28;;;8.19;70.14
26112;BME280;13829;48.990;8.346;2023-04-10T05:44:32;100972.25;;;8.22;70.25
26112;BME280;13829;48.990;8.346;2023-04-10T05:47:00;100979.38;;;8.29;69.66
26112;BME280;13829;48.990;8.346;2023-04-10T05:49:27;100980.53;;;8.41;68.96
26112;BME280;13829;48.990;8.346;2023-04-10T05:51:54;100982.94;;;8.31;67.42
26112;BME280;13829;48.990;8.346;2023-04-10T05:54:21;100986.69;;;8.43;67.97
26112;BME280;13829;48.990;8.346;2023-04-10T05:56:47;100990.63;;;8.60;67.47
26112;BME280;13829;48.990;8.346;2023-04-10T05:59:16;100989.19;;;8.75;68.03
26112;BME280;13829;48.990;8.346;2023-04-10T06:01:43;100987.94;;;8.98;65.80
26112;BME280;13829;48.990;8.346;2023-04-10T06:04:11;100978.28;;;8.96;62.96
26112;BME280;13829;48.990;8.346;2023-04-10T06:06:38;100977.09;;;9.24;59.88
26112;BME280;13829;48.990;8.346;2023-04-10T06:09:06;100977.69;;;9.55;56.46
26112;BME280;13829;48.990;8.346;2023-04-10T06:11:33;100983.13;;;9.68;55.36
26112;BME280;13829;48.990;8.346;2023-04-10T06:14:00;100982.41;;;9.75;55.89
26112;BME280;13829;48.990;8.346;2023-04-10T06:16:28;100982.50;;;9.81;55.15
26112;BME280;13829;48.990;8.346;2023-04-10T06:18:56;100974.16;;;10.07;54.58
26112;BME280;13829;48.990;8.346;2023-04-10T06:21:23;100975.28;;;10.21;54.78
26112;BME280;13829;48.990;8.346;2023-04-10T06:23:51;100974.06;;;10.54;53.35
26112;BME280;13829;48.990;8.346;2023-04-10T06:26:18;100971.44;;;10.54;52.04
26112;BME280;13829;48.990;8.346;2023-04-10T06:28:45;100965.50;;;10.69;53.28
26112;BME280;13829;48.990;8.346;2023-04-10T06:31:12;100971.75;;;10.79;51.64
26112;BME280;13829;48.990;8.346;2023-04-10T06:33:40;100968.25;;;10.80;52.36
26112;BME280;13829;48.990;8.346;2023-04-10T06:36:07;100964.94;;;10.93;51.72
26112;BME280;13829;48.990;8.346;2023-04-10T06:38:35;100969.53;;;11.12;50.95
26112;BME280;13829;48.990;8.346;2023-04-10T06:41:03;100973.91;;;11.11;51.34
26112;BME280;13829;48.990;8.346;2023-04-10T06:43:33;100973.09;;;11.18;51.36
26112;BME280;13829;48.990;8.346;2023-04-10T06:46:00;100971.59;;;11.39;51.32
26112;BME280;13829;48.990;8.346;2023-04-10T06:48:28;100961.94;;;12.36;48.04
26112;BME280;13829;48.990;8.346;2023-04-10T06:50:57;100953.59;;;14.40;43.75
26112;BME280;13829;48.990;8.346;2023-04-10T06:53:25;100937.03;;;16.73;39.07
26112;BME280;13829;48.990;8.346;2023-04-10T06:55:52;100932.84;;;17.83;35.99
26112;BME280;13829;48.990;8.346;2023-04-10T06:58:19;100933.38;;;18.55;34.25
26112;BME280;13829;48.990;8.346;2023-04-10T07:00:46;100935.78;;;18.67;32.96
26112;BME280;13829;48.990;8.346;2023-04-10T07:03:13;100932.94;;;19.96;32.04
26112;BME280;13829;48.990;8.346;2023-04-10T07:05:40;100926.59;;;20.34;30.79
26112;BME280;13829;48.990;8.346;2023-04-10T07:08:08;100926.03;;;21.16;30.76
26112;BME280;13829;48.990;8.346;2023-04-10T07:10:35;100925.91;;;22.29;29.03
26112;BME280;13829;48.990;8.346;2023-04-10T07:13:02;100931.47;;;22.50;27.94
26112;BME280;13829;48.990;8.346;2023-04-10T07:15:29;100924.88;;;23.52;26.12
26112;BME280;13829;48.990;8.346;2023-04-10T07:17:56;100944.16;;;21.64;27.24
26112;BME280;13829;48.990;8.346;2023-04-10T07:20:23;100938.91;;;22.15;26.42
26112;BME280;13829;48.990;8.346;2023-04-10T07:22:50;100942.19;;;20.50;28.10
26112;BME280;13829;48.990;8.346;2023-04-10T07:25:19;100928.59;;;22.03;27.09
26112;BME280;13829;48.990;8.346;2023-04-10T07:27:46;100927.63;;;23.05;26.11
26112;BME280;13829;48.990;8.346;2023-04-10T07:30:13;100928.53;;;22.06;26.04
26112;BME280;13829;48.990;8.346;2023-04-10T07:32:40;100922.53;;;21.14;27.17
26112;BME280;13829;48.990;8.346;2023-04-10T07:35:08;100934.25;;;22.20;27.71
26112;BME280;13829;48.990;8.346;2023-04-10T07:37:35;100911.69;;;23.24;26.17
26112;BME280;13829;48.990;8.346;2023-04-10T07:40:06;100915.13;;;23.50;25.69
26112;BME280;13829;48.990;8.346;2023-04-10T07:42:34;100924.38;;;21.70;25.89
26112;BME280;13829;48.990;8.346;2023-04-10T07:45:02;100921.56;;;21.16;28.07
26112;BME280;13829;48.990;8.346;2023-04-10T07:47:29;100912.34;;;22.34;28.10
26112;BME280;13829;48.990;8.346;2023-04-10T07:49:56;100916.16;;;22.52;26.90
26112;BME280;13829;48.990;8.346;2023-04-10T07:52:23;100916.19;;;22.76;26.29
26112;BME280;13829;48.990;8.346;2023-04-10T07:54:50;100920.75;;;22.74;25.46
26112;BME280;13829;48.990;8.346;2023-04-10T07:57:17;100927.66;;;21.50;26.50
26112;BME280;13829;48.990;8.346;2023-04-10T07:59:45;100920.22;;;20.72;27.14
26112;BME280;13829;48.990;8.346;2023-04-10T08:02:12;100922.75;;;20.45;27.56
26112;BME280;13829;48.990;8.346;2023-04-10T08:04:39;100926.78;;;21.21;28.68
26112;BME280;13829;48.990;8.346;2023-04-10T08:07:07;100923.72;;;21.62;27.36
26112;BME280;13829;48.990;8.346;2023-04-10T08:09:34;100928.34;;;21.28;26.93
26112;BME280;13829;48.990;8.346;2023-04-10T08:12:02;100927.19;;;20.77;27.54
26112;BME280;13829;48.990;8.346;2023-04-10T08:14:29;100919.78;;;20.54;28.14
26112;BME280;13829;48.990;8.346;2023-04-10T08:16:57;100916.97;;;19.94;28.09
26112;BME280;13829;48.990;8.346;2023-04-10T08:19:24;100920.13;;;20.09;28.63
26112;BME280;13829;48.990;8.346;2023-04-10T08:21:51;100920.88;;;20.15;28.47
26112;BME280;13829;48.990;8.346;2023-04-10T08:24:18;100922.03;;;20.03;28.62
26112;BME280;13829;48.990;8.346;2023-04-10T08:26:47;100917.56;;;20.39;27.77
26112;BME280;13829;48.990;8.346;2023-04-10T08:29:14;100918.56;;;20.66;26.91
26112;BME280;13829;48.990;8.346;2023-04-10T08:31:41;100912.47;;;19.95;27.65
26112;BME280;13829;48.990;8.346;2023-04-10T08:34:09;100913.72;;;19.44;27.78
26112;BME280;13829;48.990;8.346;2023-04-10T08:36:36;100905.22;;;18.85;28.83
26112;BME280;13829;48.990;8.346;2023-04-10T08:39:03;100908.56;;;18.51;29.63
26112;BME280;13829;48.990;8.346;2023-04-10T08:41:33;100909.31;;;18.58;31.38
26112;BME280;13829;48.990;8.346;2023-04-10T08:44:00;100916.75;;;19.28;33.17
26112;BME280;13829;48.990;8.346;2023-04-10T08:46:29;100910.63;;;19.62;30.60
26112;BME280;13829;48.990;8.346;2023-04-10T08:49:02;100909.69;;;19.63;28.91
26112;BME280;13829;48.990;8.346;2023-04-10T08:51:38;100902.66;;;19.59;30.05
26112;BME280;13829;48.990;8.346;2023-04-10T08:54:13;100895.97;;;19.79;30.00
26112;BME280;13829;48.990;8.346;2023-04-10T08:56:54;100898.34;;;19.55;28.66
26112;BME280;13829;48.990;8.346;2023-04-10T08:59:26;100891.44;;;19.82;29.89
26112;BME280;13829;48.990;8.346;2023-04-10T09:01:57;100900.09;;;19.92;29.14
26112;BME280;13829;48.990;8.346;2023-04-10T09:04:25;100893.25;;;19.80;29.75
26112;BME280;13829;48.990;8.346;2023-04-10T09:06:56;100885.88;;;19.92;30.04
26112;BME280;13829;48.990;8.346;2023-04-10T09:09:23;100892.25;;;19.86;31.08
26112;BME280;13829;48.990;8.346;2023-04-10T09:11:59;100873.97;;;19.69;30.63
26112;BME280;13829;48.990;8.346;2023-04-10T09:14:34;100869.44;;;19.72;30.28
26112;BME280;13829;48.990;8.346;2023-04-10T09:17:17;100869.75;;;19.22;28.65
26112;BME280;13829;48.990;8.346;2023-04-10T09:19:46;100864.75;;;18.66;29.67
26112;BME280;13829;48.990;8.346;2023-04-10T09:22:15;100860.41;;;18.61;31.91
26112;BME280;13829;48.990;8.346;2023-04-10T09:24:45;100862.59;;;18.43;30.01
26112;BME280;13829;48.990;8.346;2023-04-10T09:27:28;100858.25;;;18.37;29.63
26112;BME280;13829;48.990;8.346;2023-04-10T09:29:57;100847.50;;;18.40;29.90
26112;BME280;13829;48.990;8.346;2023-04-10T09:32:39;100852.91;;;18.37;29.60
26112;BME280;13829;48.990;8.346;2023-04-10T09:35:07;100833.38;;;17.91;29.89
26112;BME280;13829;48.990;8.346;2023-04-10T09:37:41;100834.34;;;17.86;30.28
26112;BME280;13829;48.990;8.346;2023-04-10T09:40:20;100828.66;;;17.57;30.74
26112;BME280;13829;48.990;8.346;2023-04-10T09:42:52;100825.63;;;17.77;32.42
26112;BME280;13829;48.990;8.346;2023-04-10T09:45:22;100828.22;;;17.81;32.97
26112;BME280;13829;48.990;8.346;2023-04-10T09:48:05;100827.31;;;17.82;31.60
26112;BME280;13829;48.990;8.346;2023-04-10T09:50:36;100817.44;;;17.88;32.42
26112;BME280;13829;48.990;8.346;2023-04-10T09:53:05;100820.47;;;17.68;32.35
26112;BME280;13829;48.990;8.346;2023-04-10T09:55:34;100805.63;;;17.56;32.25
26112;BME280;13829;48.990;8.346;2023-04-10T09:58:03;100804.47;;;17.71;34.40
26112;BME280;13829;48.990;8.346;2023-04-10T10:00:36;100805.88;;;17.91;31.96
26112;BME280;13829;48.990;8.346;2023-04-10T10:03:08;100797.06;;;17.89;32.72
26112;BME280;13829;48.990;8.346;2023-04-10T10:05:39;100799.09;;;17.73;32.05
26112;BME280;13829;48.990;8.346;2023-04-10T10:08:10;100797.47;;;17.67;31.53
26112;BME280;13829;48.990;8.346;2023-04-10T10:10:46;100791.09;;;17.74;31.97
26112;BME280;13829;48.990;8.346;2023-04-10T10:13:20;100786.53;;;17.83;33.02
26112;BME280;13829;48.990;8.346;2023-04-10T10:15:58;100787.22;;;17.92;32.57
26112;BME280;13829;48.990;8.346;2023-04-10T10:18:40;100785.03;;;17.68;33.91
26112;BME280;13829;48.990;8.346;2023-04-10T10:21:10;100785.16;;;17.60;35.35
26112;BME280;13829;48.990;8.346;2023-04-10T10:23:41;100779.84;;;17.60;33.94
26112;BME280;13829;48.990;8.346;2023-04-10T10:26:09;100778.19;;;17.53;35.30
26112;BME280;13829;48.990;8.346;2023-04-10T10:28:39;100777.34;;;17.51;35.08
26112;BME280;13829;48.990;8.346;2023-04-10T10:31:06;100774.81;;;17.44;35.81
26112;BME280;13829;48.990;8.346;2023-04-10T10:33:37;100779.19;;;17.47;34.49
26112;BME280;13829;48.990;8.346;2023-04-10T10:36:06;100771.25;;;17.46;35.51
26112;BME280;13829;48.990;8.346;2023-04-10T10:38:43;100771.09;;;17.52;35.98
26112;BME280;13829;48.990;8.346;2023-04-10T10:41:27;100767.91;;;17.34;33.56
26112;BME280;13829;48.990;8.346;2023-04-10T10:44:05;100760.66;;;17.42;34.31
26112;BME280;13829;48.990;8.346;2023-04-10T10:46:41;100757.25;;;17.34;33.25
26112;BME280;13829;48.990;8.346;2023-04-10T10:49:09;100758.94;;;17.40;34.51
26112;BME280;13829;48.990;8.346;2023-04-10T10:51:43;100754.19;;;17.57;33.49
26112;BME280;13829;48.990;8.346;2023-04-10T10:54:32;100756.13;;;17.48;33.63
26112;BME280;13829;48.990;8.346;2023-04-10T10:57:02;100760.47;;;17.52;34.39
26112;BME280;13829;48.990;8.346;2023-04-10T10:59:53;100750.56;;;17.61;34.14
26112;BME280;13829;48.990;8.346;2023-04-10T11:02:22;100747.13;;;17.55;34.33
26112;BME280;13829;48.990;8.346;2023-04-10T11:04:49;100747.06;;;17.58;33.93
26112;BME280;13829;48.990;8.346;2023-04-10T11:07:17;100743.59;;;17.56;31.68
26112;BME280;13829;48.990;8.346;2023-04-10T11:09:51;100750.56;;;17.61;34.25
26112;BME280;13829;48.990;8.346;2023-04-10T11:12:22;100747.59;;;17.79;34.27
26112;BME280;13829;48.990;8.346;2023-04-10T11:14:58;100745.72;;;17.82;35.07
26112;BME280;13829;48.990;8.346;2023-04-10T11:17:49;100738.50;;;17.89;33.24
26112;BME280;13829;48.990;8.346;2023-04-10T11:20:17;100736.34;;;18.09;31.13
26112;BME280;13829;48.990;8.346;2023-04-10T11:23:10;100721.34;;;18.05;33.45
26112;BME280;13829;48.990;8.346;2023-04-10T11:25:53;100720.63;;;17.97;35.04
26112;BME280;13829;48.990;8.346;2023-04-10T11:28:44;100711.13;;;17.82;31.95
26112;BME280;13829;48.990;8.346;2023-04-10T11:31:20;100708.47;;;17.84;33.68
26112;BME280;13829;48.990;8.346;2023-04-10T11:33:59;100702.84;;;17.99;35.53
26112;BME280;13829;48.990;8.346;2023-04-10T11:36:27;100706.38;;;18.01;35.20
26112;BME280;13829;48.990;8.346;2023-04-10T11:38:55;100702.50;;;18.15;33.42
26112;BME280;13829;48.990;8.346;2023-04-10T11:41:28;100693.41;;;18.25;33.58
26112;BME280;13829;48.990;8.346;2023-04-10T11:43:57;100693.91;;;18.42;33.97
26112;BME280;13829;48.990;8.346;2023-04-10T11:46:24;100690.25;;;18.47;31.61
26112;BME280;13829;48.990;8.346;2023-04-10T11:48:56;100686.41;;;18.60;31.15
26112;BME280;13829;48.990;8.346;2023-04-10T11:51:24;100688.94;;;18.66;34.45
26112;BME280;13829;48.990;8.346;2023-04-10T11:54:06;100683.16;;;18.85;31.65
26112;BME280;13829;48.990;8.346;2023-04-10T11:56:36;100676.97;;;18.83;32.62
26112;BME280;13829;48.990;8.346;2023-04-10T11:59:03;100673.94;;;18.98;32.57
26112;BME280;13829;48.990;8.346;2023-04-10T12:01:34;100674.91;;;18.96;32.83
26112;BME280;13829;48.990;8.346;2023-04-10T12:04:02;100664.03;;;19.03;31.65
26112;BME280;13829;48.990;8.346;2023-04-10T12:06:30;100670.38;;;18.99;31.59
26112;BME280;13829;48.990;8.346;2023-04-10T12:08:57;100662.50;;;18.95;32.01
26112;BME280;13829;48.990;8.346;2023-04-10T12:11:25;100659.41;;;19.12;30.61
26112;BME280;13829;48.990;8.346;2023-04-10T12:13:56;100651.25;;;19.16;31.32
26112;BME280;13829;48.990;8.346;2023-04-10T12:16:24;100653.50;;;19.33;31.92
26112;BME280;13829;48.990;8.346;2023-04-10T12:18:52;100651.09;;;19.55;32.58
26112;BME280;13829;48.990;8.346;2023-04-10T12:21:20;100648.94;;;19.68;31.62
26112;BME280;13829;48.990;8.346;2023-04-10T12:23:47;100644.66;;;19.63;32.14
26112;BME280;13829;48.990;8.346;2023-04-10T12:26:16;100638.09;;;19.75;30.81
26112;BME280;13829;48.990;8.346;2023-04-10T12:28:51;100647.22;;;19.67;32.54
26112;BME280;13829;48.990;8.346;2023-04-10T12:31:26;100638.53;;;19.59;32.05
26112;BME280;13829;48.990;8.346;2023-04-10T12:33:53;100632.50;;;19.52;31.61
26112;BME280;13829;48.990;8.346;2023-04-10T12:36:24;100631.41;;;19.28;32.05
26112;BME280;13829;48.990;8.346;2023-04-10T12:38:54;100641.19;;;19.28;31.40
26112;BME280;13829;48.990;8.346;2023-04-10T12:41:22;100639.41;;;19.28;31.87
26112;BME280;13829;48.990;8.346;2023-04-10T12:43:51;100629.78;;;19.22;33.37
26112;BME280;13829;48.990;8.346;2023-04-10T12:46:25;100633.22;;;19.26;32.86
26112;BME280;13829;48.990;8.346;2023-04-10T12:48:53;100633.06;;;18.99;33.97
26112;BME280;13829;48.990;8.346;2023-04-10T12:51:41;100623.03;;;19.09;31.75
26112;BME280;13829;48.990;8.346;2023-04-10T12:54:08;100616.75;;;19.12;34.47
26112;BME280;13829;48.990;8.346;2023-04-10T12:56:43;100616.53;;;19.19;31.88
26112;BME280;13829;48.990;8.346;2023-04-10T12:59:12;100615.19;;;19.36;32.40
26112;BME280;13829;48.990;8.346;2023-04-10T13:01:40;100614.97;;;19.44;34.10
26112;BME280;13829;48.990;8.346;2023-04-10T13:04:10;100622.63;;;19.56;32.27
26112;BME280;13829;48.990;8.346;2023-04-10T13:06:42;100613.03;;;19.49;31.99
26112;BME280;13829;48.990;8.346;2023-04-10T13:09:10;100610.94;;;19.60;33.60